Time;durP1;ratioP1;P1;durP2;ratioP2;P2;SDS_P1;SDS_P2;PMS_P1;PMS_P2;Temp;Humidity;BMP_temperature;BMP_pressure;BME280_temperature;BME280_humidity;BME280_pressure;Samples;Min_cycle;Max_cycle;Signal;HPM_P1;HPM_P2
2021/05/02 00:00:18;;;;;;;19.80;10.40;;;;;;;9.74;33.76;99800.22;5052715;28;20037;-56
2021/05/02 00:02:44;;;;;;;22.65;10.50;;;;;;;9.84;33.40;99806.53;5052510;28;20041;-55
2021/05/02 00:05:11;;;;;;;30.20;11.65;;;;;;;9.99;33.75;99849.94;5052560;28;20044;-57
2021/05/02 00:07:38;;;;;;;27.52;10.18;;;;;;;10.00;33.42;99861.53;5052711;28;20130;-51
2021/05/02 00:10:05;;;;;;;22.70;10.13;;;;;;;9.28;33.50;99745.81;5052461;28;20125;-51
2021/05/02 00:12:31;;;;;;;25.02;10.07;;;;;;;9.89;33.57;99847.16;5052834;28;20037;-51
2021/05/02 00:14:57;;;;;;;19.80;9.70;;;;;;;9.78;33.81;99852.47;5052511;28;20040;-58
2021/05/02 00:17:25;;;;;;;19.88;8.90;;;;;;;9.88;33.81;99858.81;5052567;28;20036;-51
2021/05/02 00:19:51;;;;;;;21.13;10.60;;;;;;;9.79;33.61;99854.19;5052741;28;20219;-56
2021/05/02 00:22:19;;;;;;;17.35;9.60;;;;;;;9.67;33.80;99841.78;5052419;28;20032;-50
2021/05/02 00:24:47;;;;;;;16.67;9.73;;;;;;;9.79;33.76;99856.84;5052057;28;20085;-54
2021/05/02 00:27:18;;;;;;;15.40;8.57;;;;;;;9.49;33.44;99812.81;5052752;28;20048;-53
2021/05/02 00:29:45;;;;;;;16.20;8.80;;;;;;;9.79;33.69;99869.41;5052311;28;20036;-53
2021/05/02 00:32:12;;;;;;;20.30;8.35;;;;;;;9.74;33.72;99845.66;5052193;28;20482;-57
2021/05/02 00:34:38;;;;;;;18.63;9.13;;;;;;;9.81;33.46;99859.44;5067861;28;20048;-54
2021/05/02 00:37:05;;;;;;;15.25;8.90;;;;;;;9.80;33.79;99855.88;5051347;28;20404;-51
2021/05/02 00:39:31;;;;;;;18.92;9.20;;;;;;;9.80;33.42;99855.88;5051849;28;20040;-52
2021/05/02 00:42:03;;;;;;;18.20;9.05;;;;;;;9.84;33.73;99856.50;5051676;28;20037;-53
2021/05/02 00:44:31;;;;;;;23.27;8.85;;;;;;;9.83;33.41;99855.66;5051820;28;20036;-55
2021/05/02 00:47:08;;;;;;;17.10;9.10;;;;;;;9.69;33.64;99826.47;5051967;28;20353;-53
2021/05/02 00:49:52;;;;;;;20.77;8.20;;;;;;;9.84;33.65;99854.69;5052044;28;20029;-54
2021/05/02 00:52:29;;;;;;;16.60;8.75;;;;;;;9.80;33.70;99855.88;5052252;28;20047;-52
2021/05/02 00:55:09;;;;;;;19.20;8.43;;;;;;;9.76;33.56;99849.91;5051716;28;20033;-55
2021/05/02 00:57:46;;;;;;;14.43;8.18;;;;;;;9.70;34.01;99842.38;5051602;28;20068;-52
2021/05/02 01:00:13;;;;;;;13.55;7.95;;;;;;;9.76;33.65;99847.25;5051760;28;20090;-55
2021/05/02 01:02:41;;;;;;;15.07;8.45;;;;;;;9.76;34.07;99870.47;5051930;28;20037;-57
2021/05/02 01:05:31;;;;;;;18.30;8.82;;;;;;;9.73;33.73;99862.69;5050612;28;20087;-53
2021/05/02 01:07:59;;;;;;;19.38;8.60;;;;;;;9.75;33.75;99869.59;5050651;28;20047;-54
2021/05/02 01:10:27;;;;;;;19.00;9.52;;;;;;;9.76;34.02;99870.47;5051598;28;20388;-53
2021/05/02 01:12:56;;;;;;;15.30;8.60;;;;;;;9.78;34.21;99863.19;5051105;28;20037;-51
2021/05/02 01:15:26;;;;;;;14.75;8.55;;;;;;;9.78;33.85;99860.50;5050249;28;20033;-51
2021/05/02 01:18:05;;;;;;;13.65;8.38;;;;;;;9.83;34.00;99865.50;5051461;28;20045;-52
2021/05/02 01:20:34;;;;;;;19.23;9.40;;;;;;;9.77;33.99;99861.47;5051345;28;20041;-56
2021/05/02 01:23:04;;;;;;;15.40;8.77;;;;;;;9.77;34.22;99869.50;5050989;28;20098;-53
2021/05/02 01:25:30;;;;;;;14.02;8.98;;;;;;;9.76;34.34;99865.94;5051049;28;20103;-53
2021/05/02 01:27:58;;;;;;;13.32;8.32;;;;;;;9.75;34.83;99869.59;5049856;28;20080;-52
2021/05/02 01:30:27;;;;;;;19.10;8.82;;;;;;;9.79;34.45;99864.03;5051239;28;20041;-52
2021/05/02 01:32:53;;;;;;;14.93;8.65;;;;;;;9.47;34.31;99812.91;5051017;28;20053;-54
2021/05/02 01:35:19;;;;;;;14.60;8.70;;;;;;;9.73;34.74;99876.06;5051252;28;20048;-51
2021/05/02 01:37:47;;;;;;;16.67;8.27;;;;;;;9.75;34.60;99866.09;5050913;28;20064;-61
2021/05/02 01:40:13;;;;;;;10.75;7.35;;;;;;;9.77;34.30;99873.03;5050998;28;20390;-50
2021/05/02 01:42:39;;;;;;;10.75;6.15;;;;;;;9.79;34.20;99875.56;5050993;28;20412;-51
2021/05/02 01:45:07;;;;;;;10.82;6.38;;;;;;;9.46;34.07;99831.75;5050948;28;20032;-57
2021/05/02 01:47:37;;;;;;;11.65;5.47;;;;;;;9.81;33.96;99886.16;5050769;28;20115;-53
2021/05/02 01:50:10;;;;;;;12.40;5.65;;;;;;;9.85;33.34;99880.44;5050266;28;20485;-56
2021/05/02 01:52:44;;;;;;;13.00;6.60;;;;;;;9.81;33.57;99870.13;5050690;28;20090;-56
2021/05/02 01:55:11;;;;;;;7.45;4.80;;;;;;;9.69;33.52;99864.72;5050629;28;20412;-56
2021/05/02 01:57:53;;;;;;;9.13;5.32;;;;;;;9.77;33.62;99893.56;5050707;28;20481;-58
2021/05/02 02:00:25;;;;;;;9.55;4.97;;;;;;;9.79;33.14;99880.09;5049260;28;20484;-57
2021/05/02 02:03:00;;;;;;;7.93;5.35;;;;;;;9.74;33.27;99877.75;5050463;28;20041;-56
2021/05/02 02:05:26;;;;;;;7.57;4.50;;;;;;;9.75;33.31;99882.13;5050585;28;20043;-56
2021/05/02 02:07:56;;;;;;;6.38;4.20;;;;;;;9.77;33.07;99889.06;5050479;28;20492;-50
2021/05/02 02:10:22;;;;;;;7.20;4.50;;;;;;;9.76;33.15;99887.34;5050510;28;20392;-55
2021/05/02 02:12:52;;;;;;;8.07;3.88;;;;;;;9.75;32.76;99880.28;5050566;28;20041;-53
2021/05/02 02:15:19;;;;;;;7.53;3.92;;;;;;;9.86;32.74;99878.63;5050616;28;20086;-55
2021/05/02 02:17:59;;;;;;;11.63;4.18;;;;;;;9.86;32.77;99878.63;5050426;28;20512;-55
2021/05/02 02:20:28;;;;;;;6.85;4.00;;;;;;;9.86;32.85;99876.81;5050206;28;20041;-52
2021/05/02 02:23:01;;;;;;;9.32;4.50;;;;;;;9.86;32.68;99870.63;5048932;28;20129;-52
2021/05/02 02:25:34;;;;;;;5.53;3.97;;;;;;;9.81;32.81;99870.13;5050413;28;20037;-50
2021/05/02 02:28:02;;;;;;;5.95;3.88;;;;;;;9.93;32.56;99887.88;5050019;28;20484;-50
2021/05/02 02:30:31;;;;;;;9.35;3.80;;;;;;;9.91;32.48;99871.97;5050178;28;20060;-50
2021/05/02 02:32:59;;;;;;;5.38;3.83;;;;;;;9.80;32.30;99860.41;5048710;28;20029;-48
2021/05/02 02:35:26;;;;;;;8.65;3.70;;;;;;;9.94;32.84;99880.72;5050076;28;20056;-50
2021/05/02 02:37:55;;;;;;;5.45;3.85;;;;;;;9.90;32.45;99864.91;5050392;28;20043;-50
2021/05/02 02:40:23;;;;;;;8.05;4.00;;;;;;;9.97;32.59;99881.31;5050270;28;20036;-50
2021/05/02 02:42:49;;;;;;;8.32;4.25;;;;;;;9.95;32.48;99874.41;5050611;28;20037;-61
2021/05/02 02:45:15;;;;;;;7.07;3.92;;;;;;;9.83;32.15;99828.91;5050444;28;20412;-50
2021/05/02 02:47:50;;;;;;;8.00;4.07;;;;;;;10.20;32.31;99887.56;5050219;28;20124;-49
2021/05/02 02:50:19;;;;;;;7.63;4.17;;;;;;;10.31;32.15;99880.50;5036811;28;20491;-50
2021/05/02 02:52:53;;;;;;;7.28;4.22;;;;;;;10.39;31.80;99888.81;5030423;28;20033;-53
2021/05/02 02:55:24;;;;;;;6.03;3.83;;;;;;;10.47;31.94;99878.38;5030575;28;20030;-51
2021/05/02 02:57:52;;;;;;;6.45;3.70;;;;;;;10.56;31.78;99879.47;5030263;28;20045;-57
2021/05/02 03:00:20;;;;;;;6.90;4.10;;;;;;;10.63;31.47;99874.47;5030673;28;20043;-51
2021/05/02 03:02:50;;;;;;;7.97;3.97;;;;;;;10.66;31.48;99868.88;5034594;28;20036;-57
2021/05/02 03:05:17;;;;;;;5.03;3.70;;;;;;;10.77;31.32;99879.56;5034249;28;20041;-52
2021/05/02 03:07:47;;;;;;;7.25;3.88;;;;;;;10.88;31.47;99878.69;5033986;28;20029;-50
2021/05/02 03:10:14;;;;;;;10.82;4.28;;;;;;;10.97;30.93;99878.91;5033744;28;20472;-51
2021/05/02 03:12:41;;;;;;;6.50;3.80;;;;;;;11.03;30.78;99857.81;5033862;28;20063;-50
2021/05/02 03:15:07;;;;;;;8.02;4.20;;;;;;;11.29;30.44;99875.41;5033460;28;20033;-49
2021/05/02 03:17:34;;;;;;;6.72;4.22;;;;;;;11.46;30.20;99877.56;5033680;28;20127;-52
2021/05/02 03:20:07;;;;;;;6.53;3.67;;;;;;;11.69;29.90;99877.41;5033881;28;20083;-54
2021/05/02 03:22:49;;;;;;;5.60;3.88;;;;;;;11.99;29.69;99881.19;5032545;28;20167;-58
2021/05/02 03:25:21;;;;;;;5.82;3.92;;;;;;;12.27;29.15;99877.94;5033554;28;20089;-54
2021/05/02 03:27:53;;;;;;;5.40;3.97;;;;;;;12.73;28.25;99865.84;5033849;28;20095;-55
2021/05/02 03:30:26;;;;;;;5.05;3.67;;;;;;;12.96;27.66;99873.69;5033785;28;20102;-50
2021/05/02 03:32:55;;;;;;;4.57;3.75;;;;;;;13.21;27.64;99879.50;5033477;28;20116;-53
2021/05/02 03:35:26;;;;;;;8.30;4.00;;;;;;;13.38;27.33;99890.56;5033628;28;20064;-49
2021/05/02 03:38:06;;;;;;;6.53;4.30;;;;;;;13.37;27.05;99873.56;5033535;28;20041;-56
2021/05/02 03:40:32;;;;;;;8.70;3.88;;;;;;;12.99;27.16;99816.94;5033702;28;20044;-52
2021/05/02 03:42:58;;;;;;;6.10;3.70;;;;;;;13.42;27.30;99881.22;5032864;28;20026;-51
2021/05/02 03:45:23;;;;;;;8.70;4.25;;;;;;;13.52;26.99;99882.13;5033274;28;20136;-57
2021/05/02 03:47:49;;;;;;;6.50;4.05;;;;;;;13.66;26.78;99878.16;5032160;28;20468;-54
2021/05/02 03:50:14;;;;;;;7.13;3.90;;;;;;;13.80;27.11;99876.88;5033319;28;20070;-57
2021/05/02 03:52:40;;;;;;;4.90;3.90;;;;;;;13.97;26.29;99882.50;5033145;28;20029;-51
2021/05/02 03:55:07;;;;;;;7.00;4.25;;;;;;;14.09;26.18;99873.25;5032960;28;20045;-55
2021/05/02 03:57:32;;;;;;;5.95;3.88;;;;;;;14.29;25.90;99874.06;5032929;28;20029;-57
2021/05/02 03:59:58;;;;;;;6.07;4.10;;;;;;;14.64;25.92;99871.66;5033043;28;20405;-53
2021/05/02 04:02:23;;;;;;;6.07;3.75;;;;;;;14.58;25.05;99816.50;5033213;28;20036;-58
2021/05/02 04:04:49;;;;;;;6.40;4.25;;;;;;;15.54;24.54;99880.88;5033092;28;20080;-56
2021/05/02 04:07:15;;;;;;;7.22;4.13;;;;;;;16.43;23.49;99879.03;5032956;28;20025;-53
2021/05/02 04:09:46;;;;;;;5.47;3.75;;;;;;;17.35;21.87;99845.84;5033001;28;20416;-58
2021/05/02 04:12:12;;;;;;;7.50;4.03;;;;;;;17.87;21.44;99870.94;5032540;28;20044;-58
2021/05/02 04:14:38;;;;;;;6.50;3.60;;;;;;;18.06;21.16;99879.72;5032468;28;20466;-54
2021/05/02 04:17:06;;;;;;;6.60;4.07;;;;;;;18.08;21.05;99873.13;5031412;28;20037;-57
2021/05/02 04:19:34;;;;;;;6.53;3.92;;;;;;;18.46;20.60;99883.38;5032823;28;20148;-57
2021/05/02 04:22:00;;;;;;;7.05;4.15;;;;;;;18.76;20.41;99874.63;5032567;28;20033;-52
2021/05/02 04:24:26;;;;;;;7.53;4.05;;;;;;;18.85;20.03;99873.56;5031951;28;20053;-55
2021/05/02 04:26:53;;;;;;;7.50;4.22;;;;;;;18.21;20.10;99769.63;5032695;28;20520;-52
2021/05/02 04:29:20;;;;;;;6.20;3.80;;;;;;;19.20;19.42;99870.50;5043301;28;20036;-57
2021/05/02 04:31:45;;;;;;;4.65;3.83;;;;;;;19.29;19.39;99845.03;5049862;28;20033;-56
2021/05/02 04:34:11;;;;;;;7.35;3.67;;;;;;;20.22;18.52;99869.34;5049756;28;20075;-51
2021/05/02 04:36:36;;;;;;;6.47;3.95;;;;;;;21.99;17.00;99859.44;5052311;28;20033;-58
2021/05/02 04:39:03;;;;;;;4.07;3.67;;;;;;;23.05;15.78;99866.53;5052310;28;20071;-56
2021/05/02 04:41:30;;;;;;;9.55;4.03;;;;;;;22.82;15.90;99860.56;5052374;28;20120;-53
2021/05/02 04:43:55;;;;;;;4.40;4.00;;;;;;;22.05;16.48;99877.72;5052368;28;20044;-60
2021/05/02 04:46:21;;;;;;;7.88;4.00;;;;;;;21.88;16.62;99858.91;5052599;28;20512;-55
2021/05/02 04:48:48;;;;;;;5.72;3.75;;;;;;;21.81;16.76;99866.22;5052158;28;20132;-55
2021/05/02 04:51:14;;;;;;;7.85;3.97;;;;;;;21.57;16.73;99871.00;5052105;28;20032;-55
2021/05/02 04:53:43;;;;;;;7.10;3.83;;;;;;;21.07;16.92;99828.19;5051554;28;20494;-54
2021/05/02 04:56:09;;;;;;;5.35;3.85;;;;;;;21.40;17.23;99854.09;5051964;28;20120;-55
2021/05/02 04:58:34;;;;;;;6.03;3.72;;;;;;;21.99;16.51;99851.25;5052106;28;20127;-56
2021/05/02 05:01:00;;;;;;;19.00;4.85;;;;;;;21.58;16.60;99848.16;5051843;28;20381;-54
2021/05/02 05:03:26;;;;;;;6.82;4.07;;;;;;;22.10;16.26;99858.88;5051836;28;20033;-53
2021/05/02 05:05:51;;;;;;;4.82;3.80;;;;;;;23.26;15.08;99807.38;5050330;28;20040;-55
2021/05/02 05:08:18;;;;;;;12.32;3.78;;;;;;;25.15;13.49;99850.78;5051387;28;20040;-56
2021/05/02 05:10:43;;;;;;;6.90;3.30;;;;;;;25.55;13.17;99850.53;5051250;28;20114;-56
2021/05/02 05:13:09;;;;;;;5.63;3.42;;;;;;;24.93;13.59;99857.41;5051314;28;20036;-57
2021/05/02 05:15:34;;;;;;;3.72;3.33;;;;;;;25.15;13.18;99851.63;5051658;28;20488;-55
2021/05/02 05:18:00;;;;;;;4.85;3.60;;;;;;;25.74;12.68;99853.34;5051637;28;20040;-53
2021/05/02 05:20:26;;;;;;;4.50;3.55;;;;;;;26.75;11.94;99853.19;5051850;28;20033;-57
2021/05/02 05:22:52;;;;;;;4.82;3.30;;;;;;;26.91;12.02;99839.91;5051080;28;20079;-53
2021/05/02 05:25:17;;;;;;;4.53;3.38;;;;;;;26.59;12.54;99845.59;5050597;28;20041;-53
2021/05/02 05:27:43;;;;;;;6.57;3.15;;;;;;;26.35;12.49;99831.72;5051148;28;20047;-54
2021/05/02 05:30:10;;;;;;;5.85;3.15;;;;;;;25.78;12.81;99843.59;5066716;28;20040;-52
2021/05/02 05:32:36;;;;;;;5.28;3.20;;;;;;;25.28;13.41;99856.16;5051238;28;20109;-57
2021/05/02 05:35:02;;;;;;;3.97;3.25;;;;;;;25.63;12.90;99855.75;5051277;28;20044;-59
2021/05/02 05:37:28;;;;;;;3.63;2.90;;;;;;;26.86;12.11;99839.78;5049773;28;20036;-61
2021/05/02 05:39:54;;;;;;;4.00;3.03;;;;;;;27.15;11.76;99793.28;5051126;28;20048;-56
2021/05/02 05:42:20;;;;;;;4.05;2.80;;;;;;;27.91;11.15;99834.81;5050014;28;20028;-58
2021/05/02 05:44:45;;;;;;;6.25;2.95;;;;;;;28.63;10.64;99843.00;5050716;28;20059;-58
2021/05/02 05:47:12;;;;;;;6.13;3.03;;;;;;;29.18;10.39;99847.16;5050986;28;20083;-52
2021/05/02 05:49:41;;;;;;;4.05;2.65;;;;;;;29.16;10.13;99848.47;5050847;28;20045;-55
2021/05/02 05:52:12;;;;;;;6.28;2.80;;;;;;;28.97;10.41;99856.97;5050960;28;20115;-53
2021/05/02 05:54:37;;;;;;;3.75;2.47;;;;;;;28.90;10.63;99846.09;5050744;28;20401;-52
2021/05/02 05:57:03;;;;;;;3.58;2.58;;;;;;;28.61;10.65;99847.94;5038447;28;20103;-52
2021/05/02 05:59:29;;;;;;;5.28;2.60;;;;;;;28.11;11.00;99847.38;5043794;28;20472;-59
2021/05/02 06:01:54;;;;;;;3.90;2.90;;;;;;;27.41;11.40;99852.53;5050960;28;20032;-58
2021/05/02 06:04:20;;;;;;;4.30;2.75;;;;;;;26.49;11.87;99838.69;5050667;28;20507;-57
2021/05/02 06:06:45;;;;;;;6.00;2.80;;;;;;;25.89;12.77;99853.00;5048938;28;20029;-55
2021/05/02 06:09:11;;;;;;;4.18;2.63;;;;;;;25.53;12.84;99860.88;5049875;28;20479;-57
2021/05/02 06:11:37;;;;;;;7.22;2.78;;;;;;;24.83;13.27;99809.66;5050397;28;20068;-54
2021/05/02 06:14:04;;;;;;;3.28;2.72;;;;;;;24.71;13.78;99856.84;5050221;28;20110;-61
2021/05/02 06:16:30;;;;;;;5.22;2.40;;;;;;;24.27;14.28;99856.56;5032816;28;20480;-53
2021/05/02 06:18:57;;;;;;;4.75;2.47;;;;;;;23.70;14.81;99865.19;5050580;28;20044;-55
2021/05/02 06:21:23;;;;;;;4.00;2.78;;;;;;;23.02;15.33;99860.63;5050314;28;20067;-58
2021/05/02 06:23:52;;;;;;;6.03;3.10;;;;;;;22.50;15.77;99863.75;5048826;28;20102;-51
2021/05/02 06:26:19;;;;;;;6.30;4.20;;;;;;;22.06;16.71;99863.03;5050314;28;20051;-58
2021/05/02 06:28:49;;;;;;;5.72;2.90;;;;;;;21.67;17.23;99862.53;5050376;28;20416;-56
2021/05/02 06:31:21;;;;;;;6.85;2.85;;;;;;;21.29;17.78;99863.59;5038221;28;20124;-59
2021/05/02 06:33:47;;;;;;;4.85;2.75;;;;;;;21.02;18.12;99863.31;5030704;28;20117;-58
2021/05/02 06:36:13;;;;;;;6.30;2.95;;;;;;;21.12;18.06;99873.03;5030097;28;20075;-56
2021/05/02 06:38:39;;;;;;;6.47;3.60;;;;;;;21.14;18.08;99857.34;5029817;28;20045;-56
2021/05/02 06:41:05;;;;;;;3.35;2.97;;;;;;;21.25;18.20;99850.56;5038113;28;20033;-56
2021/05/02 06:43:31;;;;;;;5.68;3.00;;;;;;;21.46;17.77;99852.44;5041449;28;20063;-57
2021/05/02 06:45:56;;;;;;;4.03;3.03;;;;;;;21.65;17.62;99851.00;5049928;28;20032;-53
2021/05/02 06:48:22;;;;;;;5.35;3.05;;;;;;;21.40;17.83;99788.72;5047047;28;20037;-54
2021/05/02 06:50:48;;;;;;;6.75;3.42;;;;;;;21.97;17.81;99847.91;5047644;28;20048;-57
2021/05/02 06:53:13;;;;;;;4.72;3.05;;;;;;;22.25;17.41;99844.31;5036964;28;20035;-57
2021/05/02 06:55:39;;;;;;;4.57;3.22;;;;;;;22.66;17.22;99862.56;5043998;28;20052;-55
2021/05/02 06:58:04;;;;;;;6.15;2.80;;;;;;;22.97;16.77;99847.59;5049849;28;20113;-57
2021/05/02 07:00:31;;;;;;;5.40;2.50;;;;;;;23.01;16.50;99805.19;5050025;28;20025;-51
2021/05/02 07:02:57;;;;;;;4.70;2.92;;;;;;;23.14;16.24;99842.59;5044040;28;20033;-54
2021/05/02 07:05:23;;;;;;;5.90;2.50;;;;;;;23.08;16.51;99838.81;5030304;28;20060;-58
2021/05/02 07:07:52;;;;;;;10.40;2.97;;;;;;;23.19;16.07;99858.38;5029734;28;20516;-53
2021/05/02 07:10:17;;;;;;;4.55;2.80;;;;;;;23.08;16.03;99846.16;5029694;28;20072;-54
2021/05/02 07:12:43;;;;;;;6.05;3.03;;;;;;;22.56;16.53;99805.69;5030085;28;20068;-49
2021/05/02 07:15:09;;;;;;;4.40;2.80;;;;;;;22.56;16.60;99843.03;5034959;28;20033;-57
2021/05/02 07:17:35;;;;;;;6.82;2.75;;;;;;;22.77;16.17;99853.81;5032451;28;20124;-56
2021/05/02 07:20:01;;;;;;;3.55;2.53;;;;;;;23.06;16.25;99843.63;5030057;28;20577;-55
2021/05/02 07:22:29;;;;;;;3.70;2.30;;;;;;;23.50;15.86;99838.69;5029718;28;20421;-56
2021/05/02 07:24:55;;;;;;;3.78;2.88;;;;;;;24.04;15.45;99838.72;5037648;28;20095;-55
2021/05/02 07:27:20;;;;;;;5.38;3.00;;;;;;;24.55;14.89;99841.75;5038219;28;20139;-57
2021/05/02 07:29:46;;;;;;;7.18;3.00;;;;;;;24.96;14.51;99845.19;5044470;28;20124;-57
2021/05/02 07:32:12;;;;;;;4.80;2.97;;;;;;;25.11;14.33;99827.63;5044479;28;20040;-58
2021/05/02 07:34:38;;;;;;;5.25;2.80;;;;;;;25.55;14.12;99836.81;5039321;28;20041;-54
2021/05/02 07:37:04;;;;;;;3.55;2.30;;;;;;;25.97;13.64;99835.44;5049941;28;20437;-52
2021/05/02 07:39:29;;;;;;;7.97;2.75;;;;;;;26.41;13.70;99840.94;5037155;28;20445;-54
2021/05/02 07:41:55;;;;;;;5.80;2.30;;;;;;;26.55;13.45;99822.41;5032920;28;20053;-51
2021/05/02 07:44:20;;;;;;;3.78;2.60;;;;;;;26.61;12.92;99829.72;5039342;28;20082;-55
2021/05/02 07:46:46;;;;;;;6.72;2.75;;;;;;;26.54;13.00;99810.56;5042565;28;20044;-53
2021/05/02 07:49:11;;;;;;;2.50;2.30;;;;;;;26.56;12.88;99813.91;5041674;28;20032;-53
2021/05/02 07:51:37;;;;;;;3.08;2.33;;;;;;;26.37;12.31;99824.06;5043198;28;20052;-53
2021/05/02 07:54:03;;;;;;;3.22;2.28;;;;;;;25.90;12.15;99808.91;5042166;28;20084;-56
2021/05/02 07:56:28;;;;;;;2.40;2.13;;;;;;;25.81;12.62;99799.31;5042802;28;20036;-55
2021/05/02 07:58:54;;;;;;;5.55;3.17;;;;;;;26.15;12.58;99794.31;5040705;28;20040;-59
2021/05/02 08:01:19;;;;;;;5.47;2.80;;;;;;;26.59;12.05;99801.66;5037869;28;20135;-55
2021/05/02 08:03:45;;;;;;;3.67;2.75;;;;;;;26.71;12.29;99804.47;5039708;28;20045;-58
2021/05/02 08:06:10;;;;;;;3.03;2.05;;;;;;;26.50;12.40;99801.13;5049421;28;20078;-55
2021/05/02 08:08:36;;;;;;;2.88;2.58;;;;;;;26.18;12.14;99806.78;5052829;28;20032;-58
2021/05/02 08:11:01;;;;;;;4.10;1.98;;;;;;;25.58;12.50;99803.50;5057277;28;20031;-57
2021/05/02 08:13:27;;;;;;;4.38;2.65;;;;;;;24.88;12.51;99793.44;5042310;28;20032;-58
2021/05/02 08:15:52;;;;;;;2.92;2.30;;;;;;;24.16;12.97;99743.19;5042800;28;20037;-55
2021/05/02 08:18:18;;;;;;;5.72;2.13;;;;;;;24.10;13.43;99795.16;5041207;28;20038;-58
2021/05/02 08:20:43;;;;;;;3.05;2.30;;;;;;;23.49;14.27;99792.47;5042383;28;20051;-55
2021/05/02 08:23:10;;;;;;;3.17;2.35;;;;;;;22.72;14.43;99733.53;5045272;28;20114;-55
2021/05/02 08:25:36;;;;;;;2.97;2.40;;;;;;;22.70;14.86;99784.75;5065551;28;20051;-60
2021/05/02 08:28:02;;;;;;;3.72;2.38;;;;;;;22.41;15.44;99778.50;5055906;28;20028;-57
2021/05/02 08:30:28;;;;;;;2.78;2.38;;;;;;;22.19;15.48;99783.22;5064266;28;20028;-55
2021/05/02 08:32:53;;;;;;;7.45;2.42;;;;;;;21.94;15.89;99781.84;5059305;28;20109;-59
2021/05/02 08:35:19;;;;;;;3.00;2.35;;;;;;;21.79;16.10;99792.81;5051878;28;20045;-57
2021/05/02 08:37:44;;;;;;;6.38;2.35;;;;;;;21.61;16.29;99763.31;5051725;28;20119;-51
2021/05/02 08:40:10;;;;;;;4.30;2.40;;;;;;;21.51;16.20;99771.00;5051886;28;20037;-56
2021/05/02 08:42:36;;;;;;;5.40;3.13;;;;;;;21.56;16.30;99784.88;5052207;28;20041;-54
2021/05/02 08:45:03;;;;;;;3.53;2.47;;;;;;;21.55;16.65;99785.06;5051765;28;20048;-55
2021/05/02 08:47:34;;;;;;;3.10;2.70;;;;;;;21.39;16.41;99769.84;5051959;28;20143;-53
2021/05/02 08:50:00;;;;;;;3.15;2.85;;;;;;;21.37;16.35;99784.50;5051967;28;20036;-54
2021/05/02 08:52:26;;;;;;;3.80;2.50;;;;;;;21.29;16.15;99783.78;5051511;28;20073;-54
2021/05/02 08:54:51;;;;;;;3.15;2.65;;;;;;;21.18;16.29;99777.84;5051166;28;20049;-56
2021/05/02 08:57:17;;;;;;;3.95;2.60;;;;;;;21.02;16.59;99787.09;5051439;28;20073;-54
2021/05/02 08:59:43;;;;;;;8.85;2.72;;;;;;;20.60;16.99;99773.19;5051035;28;20043;-58
2021/05/02 09:02:21;;;;;;;3.45;2.72;;;;;;;20.52;17.67;99786.91;5051491;28;20029;-56
2021/05/02 09:05:02;;;;;;;7.13;2.60;;;;;;;20.43;17.84;99791.63;5051487;28;20067;-56
2021/05/02 09:07:38;;;;;;;3.42;2.28;;;;;;;20.30;17.50;99781.41;5050985;28;20057;-49
2021/05/02 09:10:04;;;;;;;4.43;2.25;;;;;;;20.34;17.63;99787.31;5051238;28;20077;-50
2021/05/02 09:12:30;;;;;;;5.07;2.70;;;;;;;20.40;17.77;99777.56;5051286;28;20090;-55
2021/05/02 09:14:55;;;;;;;5.65;2.35;;;;;;;20.45;17.51;99773.22;5051106;28;20045;-49
2021/05/02 09:17:29;;;;;;;2.63;2.42;;;;;;;20.29;17.92;99728.06;5051642;28;20041;-56
2021/05/02 09:19:58;;;;;;;6.85;2.20;;;;;;;20.58;17.74;99774.44;5049931;28;20135;-58
2021/05/02 09:22:24;;;;;;;2.75;2.55;;;;;;;20.40;17.54;99764.81;5054196;28;20520;-51
2021/05/02 09:25:05;;;;;;;8.35;2.80;;;;;;;20.35;17.95;99775.41;5037247;28;20048;-52
2021/05/02 09:27:31;;;;;;;4.72;2.65;;;;;;;19.76;18.26;99734.44;5062935;28;20152;-55
2021/05/02 09:30:13;;;;;;;4.22;2.67;;;;;;;20.05;18.30;99775.44;5052632;28;20025;-55
2021/05/02 09:32:48;;;;;;;2.55;2.35;;;;;;;19.86;18.55;99772.22;5055048;28;20041;-54
2021/05/02 09:35:35;;;;;;;5.43;2.72;;;;;;;19.82;18.60;99773.63;5059135;28;20060;-62
2021/05/02 09:38:27;;;;;;;4.82;2.40;;;;;;;19.72;19.02;99771.16;5040454;28;20043;-53
2021/05/02 09:40:59;;;;;;;4.45;2.70;;;;;;;19.41;18.84;99764.00;5036347;28;20416;-50
2021/05/02 09:43:39;;;;;;;2.65;2.42;;;;;;;19.42;18.98;99770.25;5050413;28;20116;-57
2021/05/02 09:49:04;;;;;;;3.03;2.30;;;;;;;19.22;19.01;99777.03;5036529;28;20444;-57
2021/05/02 09:51:30;;;;;;;2.80;2.55;;;;;;;19.10;19.28;99767.63;5035446;28;20476;-59
2021/05/02 09:54:05;;;;;;;4.28;2.67;;;;;;;19.13;18.96;99775.41;5036442;28;20543;-56
2021/05/02 09:56:43;;;;;;;2.50;2.30;;;;;;;19.13;19.50;99766.44;5055185;28;20389;-59
2021/05/02 09:59:20;;;;;;;4.50;2.40;;;;;;;19.26;19.10;99777.50;5063660;28;20102;-58
2021/05/02 10:02:10;;;;;;;6.53;2.65;;;;;;;19.32;19.01;99763.22;5042019;28;20037;-55
2021/05/02 10:04:41;;;;;;;4.07;2.53;;;;;;;19.25;19.15;99769.56;5044736;28;20033;-54
2021/05/02 10:07:11;;;;;;;3.22;2.33;;;;;;;19.30;19.21;99759.84;5044000;28;20032;-51
2021/05/02 10:09:38;;;;;;;4.82;2.78;;;;;;;19.32;19.11;99771.38;5058706;28;20040;-52
2021/05/02 10:12:05;;;;;;;5.80;2.50;;;;;;;19.32;19.43;99755.06;5045699;28;20485;-52
2021/05/02 10:14:33;;;;;;;2.70;2.50;;;;;;;19.25;19.44;99754.09;5042903;28;20485;-54
2021/05/02 10:17:00;;;;;;;3.00;2.70;;;;;;;19.08;19.40;99754.25;5045234;28;20512;-52
2021/05/02 10:19:25;;;;;;;4.60;2.63;;;;;;;18.79;19.55;99750.31;5047667;28;20403;-53
2021/05/02 10:21:51;;;;;;;5.70;3.00;;;;;;;18.53;20.01;99744.38;5045847;28;20048;-55
2021/05/02 10:24:17;;;;;;;3.80;2.28;;;;;;;18.34;20.42;99754.69;5046104;28;20535;-56
2021/05/02 10:26:42;;;;;;;3.00;2.78;;;;;;;18.26;20.51;99751.97;5037773;28;20128;-59
2021/05/02 10:29:08;;;;;;;3.72;2.33;;;;;;;18.32;20.68;99752.13;5050675;28;20035;-52
2021/05/02 10:31:41;;;;;;;4.78;2.85;;;;;;;18.35;20.51;99743.63;5056583;28;20052;-58
2021/05/02 10:34:35;;;;;;;5.38;2.35;;;;;;;18.63;20.50;99742.31;5039218;28;20034;-50
2021/05/02 10:37:23;;;;;;;4.05;2.80;;;;;;;18.78;20.34;99747.81;5032989;28;20034;-55
2021/05/02 10:40:03;;;;;;;4.50;2.60;;;;;;;18.82;19.88;99742.88;5040519;28;20136;-51
2021/05/02 10:42:35;;;;;;;5.30;2.60;;;;;;;18.80;20.11;99746.59;5042385;28;20495;-56
2021/05/02 10:45:48;;;;;;;4.75;2.42;;;;;;;18.91;20.15;99736.38;5076808;28;20035;-53
2021/05/02 10:48:13;;;;;;;6.22;3.05;;;;;;;18.75;20.19;99732.72;5047796;28;20025;-60
2021/05/02 10:50:44;;;;;;;3.88;2.58;;;;;;;18.38;20.58;99679.25;5049633;28;20082;-53
2021/05/02 10:53:13;;;;;;;5.07;2.80;;;;;;;18.34;20.46;99671.50;5062516;28;20112;-54
2021/05/02 10:55:56;;;;;;;2.63;2.40;;;;;;;18.74;20.59;99733.75;5038987;28;20101;-53
2021/05/02 10:58:30;;;;;;;2.92;2.45;;;;;;;18.65;20.68;99734.84;5042142;28;20037;-50
2021/05/02 11:01:07;;;;;;;3.25;2.53;;;;;;;18.63;20.56;99728.75;5038250;28;20149;-51
2021/05/02 11:03:39;;;;;;;3.47;2.55;;;;;;;18.58;20.40;99725.75;5058416;28;20947;-55
2021/05/02 11:06:15;;;;;;;4.80;2.60;;;;;;;18.48;20.29;99734.94;5043683;28;20045;-66
2021/05/02 11:08:50;;;;;;;4.10;3.05;;;;;;;17.96;20.54;99678.59;5029581;28;20366;-60
2021/05/02 11:11:31;;;;;;;5.15;2.95;;;;;;;18.31;20.71;99736.03;5029206;28;20042;-60
2021/05/02 11:16:56;;;;;;;3.75;3.08;;;;;;;18.46;20.61;99738.88;5029418;28;20076;-58
2021/05/02 11:19:24;;;;;;;6.32;3.20;;;;;;;18.56;20.55;99725.91;5027155;28;20033;-58
2021/05/02 11:21:52;;;;;;;6.95;3.00;;;;;;;18.71;20.13;99717.03;5029054;28;20040;-58
2021/05/02 11:24:20;;;;;;;4.10;3.10;;;;;;;18.56;20.00;99678.97;5032348;28;20075;-57
2021/05/02 11:27:00;;;;;;;4.35;3.38;;;;;;;19.16;19.79;99723.47;5033198;28;20041;-53
2021/05/02 11:29:47;;;;;;;5.03;3.20;;;;;;;19.46;19.54;99712.69;5032978;28;20116;-61
2021/05/02 11:32:33;;;;;;;6.60;3.30;;;;;;;19.52;19.13;99708.38;5029507;28;20064;-60
2021/05/02 11:35:05;;;;;;;3.97;2.95;;;;;;;19.67;19.34;99723.84;5030306;28;20073;-60
2021/05/02 11:37:38;;;;;;;4.38;3.10;;;;;;;19.79;19.10;99725.09;5039739;28;20084;-61
2021/05/02 11:43:09;;;;;;;8.30;3.25;;;;;;;19.77;19.29;99719.84;5042313;28;20025;-57
2021/05/02 11:45:46;;;;;;;7.97;3.50;;;;;;;19.70;19.37;99724.34;5043159;28;20036;-59
2021/05/02 11:48:20;;;;;;;3.95;3.20;;;;;;;19.63;19.19;99726.94;5041091;28;20069;-59
2021/05/02 11:50:47;;;;;;;5.10;3.25;;;;;;;19.48;19.29;99712.50;5039993;28;20026;-58